createdAt,value
2023-05-21T00:04:31.652Z,56.68
2023-05-21T00:09:34.955Z,56.51
2023-05-21T00:14:40.935Z,56.94
2023-05-21T00:19:43.647Z,56.67
2023-05-21T00:24:46.501Z,56.86
2023-05-21T00:29:49.219Z,56.48
2023-05-21T00:34:51.981Z,57.03
2023-05-21T00:39:56.331Z,57.39
2023-05-21T00:45:01.002Z,57.09
2023-05-21T00:50:06.938Z,57.25
2023-05-21T00:55:10.504Z,57.28
2023-05-21T01:00:15.006Z,57.44
2023-05-21T01:05:18.306Z,57.45
2023-05-21T01:10:21.060Z,57.92
2023-05-21T01:15:24.097Z,58.25
2023-05-21T01:20:30.680Z,58.20
2023-05-21T01:25:36.450Z,58.64
2023-05-21T01:30:44.187Z,58.91
2023-05-21T01:35:55.986Z,58.92
2023-05-21T01:41:04.448Z,59.72
2023-05-21T01:46:10.936Z,59.36
2023-05-21T01:51:15.010Z,59.89
2023-05-21T01:56:18.182Z,59.84
2023-05-21T02:01:21.209Z,59.98
2023-05-21T02:06:24.250Z,59.96
2023-05-21T02:11:27.111Z,60.28
2023-05-21T02:16:29.926Z,60.85
2023-05-21T02:21:33.004Z,60.95
2023-05-21T02:26:35.985Z,60.78
2023-05-21T02:31:38.655Z,60.91
2023-05-21T02:36:41.977Z,61.26
2023-05-21T02:41:44.746Z,60.61
2023-05-21T02:46:47.747Z,60.56
2023-05-21T02:51:52.583Z,60.44
2023-05-21T02:56:56.061Z,60.35
2023-05-21T03:01:58.715Z,60.16
2023-05-21T03:07:02.466Z,60.17
2023-05-21T03:12:07.101Z,60.20
2023-05-21T03:17:14.214Z,59.78
2023-05-21T03:22:17.029Z,59.25
2023-05-21T03:27:19.730Z,58.98
2023-05-21T03:32:23.956Z,58.18
2023-05-21T03:37:27.929Z,57.83
2023-05-21T03:42:30.770Z,57.38
2023-05-21T03:47:34.305Z,57.15
2023-05-21T03:52:39.676Z,57.17
2023-05-21T03:57:42.980Z,57.14
2023-05-21T04:02:46.105Z,56.66
2023-05-21T04:07:52.882Z,55.65
2023-05-21T04:12:57.215Z,55.12
2023-05-21T04:18:00.802Z,54.54
2023-05-21T04:23:03.965Z,54.01
2023-05-21T04:28:07.564Z,53.55
2023-05-21T04:33:10.385Z,53.32
2023-05-21T04:38:13.179Z,52.72
2023-05-21T04:43:17.636Z,51.87
2023-05-21T04:48:29.732Z,51.11
2023-05-21T04:53:32.489Z,51.10
2023-05-21T04:58:35.315Z,50.67
2023-05-21T05:03:40.928Z,50.37
2023-05-21T05:08:44.887Z,49.57
2023-05-21T05:21:13.687Z,48.86
2023-05-21T05:26:16.568Z,48.36
2023-05-21T05:31:19.385Z,47.71
2023-05-21T05:36:22.890Z,47.01
2023-05-21T05:41:25.613Z,46.30
2023-05-21T05:46:31.414Z,45.84
2023-05-21T05:51:34.413Z,45.44
2023-05-21T05:56:37.217Z,45.67
2023-05-21T06:01:42.791Z,45.44
2023-05-21T06:06:47.738Z,44.95
2023-05-21T06:11:50.781Z,44.55
2023-05-21T06:16:53.965Z,44.22
2023-05-21T06:21:56.869Z,43.69
2023-05-21T06:26:59.805Z,43.35
2023-05-21T06:32:03.944Z,42.80
2023-05-21T06:37:07.568Z,42.42
2023-05-21T06:42:10.342Z,41.94
2023-05-21T06:47:29.532Z,41.31
2023-05-21T06:52:32.119Z,40.62
2023-05-21T06:57:41.335Z,40.54
2023-05-21T07:02:45.190Z,40.30
2023-05-21T07:07:48.035Z,39.69
2023-05-21T07:12:51.528Z,38.98
2023-05-21T07:17:55.768Z,39.00
2023-05-21T07:22:58.477Z,38.68
2023-05-21T07:28:01.390Z,38.17
2023-05-21T07:33:04.472Z,37.79
2023-05-21T07:38:07.367Z,38.19
2023-05-21T07:43:10.298Z,37.46
2023-05-21T07:48:15.970Z,37.39
2023-05-21T07:53:32.682Z,36.27
2023-05-21T07:58:41.501Z,36.26
2023-05-21T08:09:06.547Z,36.43
2023-05-21T08:14:09.351Z,36.38
2023-05-21T08:19:12.376Z,35.52
2023-05-21T08:24:15.819Z,35.16
2023-05-21T08:29:18.458Z,33.52
2023-05-21T08:34:21.459Z,34.05
2023-05-21T08:39:35.624Z,34.04
2023-05-21T08:44:44.848Z,34.63
2023-05-21T08:49:48.462Z,34.99
2023-05-21T08:54:54.675Z,34.63
2023-05-21T08:59:58.855Z,34.82
2023-05-21T09:05:04.851Z,34.57
2023-05-21T09:10:10.408Z,33.92
2023-05-21T09:15:16.126Z,33.01
2023-05-21T09:20:25.397Z,33.11
2023-05-21T09:25:33.828Z,33.29
2023-05-21T09:30:53.771Z,33.87
2023-05-21T09:35:56.903Z,34.00
2023-05-21T09:41:05.795Z,34.14
2023-05-21T09:46:08.510Z,34.85
2023-05-21T09:51:22.934Z,35.35
2023-05-21T09:56:29.359Z,35.63
2023-05-21T10:01:36.422Z,35.47
2023-05-21T10:06:44.072Z,35.73
2023-05-21T10:11:49.986Z,35.42
2023-05-21T10:16:55.100Z,36.24
2023-05-21T10:21:58.419Z,35.59
2023-05-21T10:27:02.904Z,35.83
2023-05-21T10:32:06.514Z,34.79
2023-05-21T10:37:10.304Z,33.11
2023-05-21T10:42:31.186Z,32.98
2023-05-21T10:47:55.118Z,33.10
2023-05-21T10:53:36.956Z,33.31
2023-05-21T10:58:54.526Z,33.29
2023-05-21T11:03:58.053Z,33.25
2023-05-21T11:09:14.329Z,34.66
2023-05-21T11:14:40.365Z,33.65
2023-05-21T11:19:44.121Z,31.49
2023-05-21T11:24:47.779Z,31.29
2023-05-21T11:29:56.200Z,30.25
2023-05-21T11:35:04.212Z,29.53
2023-05-21T11:40:27.535Z,29.67
2023-05-21T11:45:32.909Z,31.18
2023-05-21T11:50:36.012Z,31.93
2023-05-21T11:55:43.923Z,30.76
2023-05-21T12:00:46.517Z,29.87
2023-05-21T12:06:06.033Z,28.14
2023-05-21T12:11:08.742Z,27.29
2023-05-21T12:16:12.286Z,27.92
2023-05-21T12:21:15.554Z,28.59
2023-05-21T12:26:18.253Z,29.42
2023-05-21T12:31:25.104Z,29.93
2023-05-21T12:36:30.696Z,30.24
2023-05-21T12:41:33.379Z,29.87
2023-05-21T12:46:37.392Z,30.71
2023-05-21T12:51:40.625Z,31.13
2023-05-21T12:56:46.856Z,31.55
2023-05-21T13:01:49.600Z,30.93
2023-05-21T13:06:52.331Z,29.18
2023-05-21T13:11:55.007Z,27.89
2023-05-21T13:16:58.316Z,27.15
2023-05-21T13:22:01.111Z,27.55
2023-05-21T13:27:03.952Z,28.34
2023-05-21T13:32:06.739Z,27.96
2023-05-21T13:37:09.381Z,28.41
2023-05-21T13:42:13.937Z,28.38
2023-05-21T13:47:16.950Z,28.60
2023-05-21T13:52:20.352Z,28.92
2023-05-21T13:57:23.001Z,29.65
2023-05-21T14:02:29.151Z,30.57
2023-05-21T14:07:31.761Z,31.31
2023-05-21T14:12:34.971Z,31.89
2023-05-21T14:17:40.653Z,32.29
2023-05-21T14:22:43.424Z,33.02
2023-05-21T14:27:46.124Z,33.32
2023-05-21T14:32:48.730Z,33.96
2023-05-21T14:37:51.406Z,34.08
2023-05-21T14:42:54.464Z,34.21
2023-05-21T14:47:57.165Z,34.44
2023-05-21T14:52:59.677Z,34.89
2023-05-21T14:58:03.680Z,35.29
2023-05-21T15:03:07.003Z,35.77
2023-05-21T15:08:10.069Z,36.48
2023-05-21T15:13:12.766Z,37.09
2023-05-21T15:18:16.414Z,37.17
2023-05-21T15:23:19.319Z,37.98
2023-05-21T15:28:24.343Z,38.50
2023-05-21T15:33:26.872Z,39.25
2023-05-21T15:38:29.523Z,39.52
2023-05-21T15:43:32.563Z,40.08
2023-05-21T15:48:35.114Z,40.47
2023-05-21T15:53:37.664Z,41.28
2023-05-21T15:58:40.336Z,41.64
2023-05-21T16:03:43.013Z,42.05
2023-05-21T16:08:46.176Z,42.43
2023-05-21T16:13:48.787Z,42.65
2023-05-21T16:18:54.576Z,43.22
2023-05-21T16:23:57.084Z,43.31
2023-05-21T16:29:00.294Z,43.50
2023-05-21T16:34:02.891Z,43.97
2023-05-21T16:39:05.688Z,43.98
2023-05-21T16:44:08.432Z,44.16
2023-05-21T16:49:11.017Z,44.22
2023-05-21T16:54:13.940Z,44.65
2023-05-21T16:59:16.710Z,44.48
2023-05-21T17:04:19.331Z,44.68
2023-05-21T17:09:22.001Z,44.85
2023-05-21T17:14:33.924Z,45.00
2023-05-21T17:19:37.744Z,45.22
2023-05-21T17:24:40.549Z,45.27
2023-05-21T17:29:43.091Z,45.25
2023-05-21T17:34:46.075Z,45.31
2023-05-21T17:40:07.327Z,45.27
2023-05-21T17:45:10.586Z,45.51
2023-05-21T17:50:13.314Z,45.89
2023-05-21T17:55:15.934Z,45.84
2023-05-21T18:00:18.884Z,45.98
2023-05-21T18:05:21.577Z,46.44
2023-05-21T18:10:26.649Z,46.65
2023-05-21T18:15:29.210Z,46.67
2023-05-21T18:20:31.804Z,46.04
2023-05-21T18:25:36.054Z,45.95
2023-05-21T18:30:39.005Z,45.08
2023-05-21T18:35:44.450Z,44.63
2023-05-21T18:40:47.366Z,43.82
2023-05-21T18:45:49.991Z,43.07
2023-05-21T18:50:53.147Z,41.75
2023-05-21T18:55:55.836Z,41.25
2023-05-21T19:00:58.408Z,41.53
2023-05-21T19:06:01.128Z,42.08
2023-05-21T19:11:04.095Z,41.91
2023-05-21T19:16:11.303Z,41.79
2023-05-21T19:21:14.156Z,41.77
2023-05-21T19:26:17.117Z,41.85
2023-05-21T19:31:20.868Z,41.79
2023-05-21T19:36:23.598Z,41.52
2023-05-21T19:41:26.761Z,41.43
2023-05-21T19:46:29.493Z,41.35
2023-05-21T19:51:33.426Z,41.41
2023-05-21T19:56:36.563Z,41.77
2023-05-21T20:01:40.536Z,41.96
2023-05-21T20:06:43.239Z,42.50
2023-05-21T20:11:45.834Z,42.86
2023-05-21T20:16:48.792Z,43.16
2023-05-21T20:21:51.441Z,43.63
2023-05-21T20:26:55.190Z,43.93
2023-05-21T20:31:58.209Z,43.87
2023-05-21T20:37:00.811Z,44.03
2023-05-21T20:42:06.643Z,44.24
2023-05-21T20:47:10.565Z,44.34
2023-05-21T20:52:14.519Z,44.53
2023-05-21T20:57:17.320Z,44.36
2023-05-21T21:02:20.973Z,44.63
2023-05-21T21:07:23.712Z,44.92
2023-05-21T21:12:26.988Z,45.03
2023-05-21T21:17:29.824Z,45.46
2023-05-21T21:22:32.504Z,45.83
2023-05-21T21:27:35.317Z,45.99
2023-05-21T21:32:38.152Z,46.19
2023-05-21T21:37:41.056Z,46.28
2023-05-21T21:42:43.736Z,46.36
2023-05-21T21:47:46.393Z,46.54
2023-05-21T21:52:49.249Z,46.93
2023-05-21T21:57:51.940Z,46.98
2023-05-21T22:02:54.713Z,46.70
2023-05-21T22:07:57.430Z,46.31
2023-05-21T22:13:02.895Z,45.50
2023-05-21T22:18:09.870Z,44.90
2023-05-21T22:23:12.688Z,44.92
2023-05-21T22:28:15.281Z,44.56
2023-05-21T22:33:17.996Z,44.77
2023-05-21T22:38:21.108Z,44.76
2023-05-21T22:43:23.812Z,45.19
2023-05-21T22:48:26.742Z,45.19
2023-05-21T22:53:29.345Z,45.87
2023-05-21T22:58:32.155Z,46.39
2023-05-21T23:03:34.636Z,46.94
2023-05-21T23:08:37.261Z,47.54
2023-05-21T23:13:39.861Z,48.56
2023-05-21T23:18:42.364Z,49.38
2023-05-21T23:23:44.915Z,51.34
2023-05-21T23:28:47.502Z,51.82
2023-05-21T23:33:51.542Z,52.94
2023-05-21T23:38:54.136Z,53.75
2023-05-21T23:43:56.769Z,55.01
2023-05-21T23:48:59.873Z,55.50
2023-05-21T23:54:02.562Z,55.91
2023-05-21T23:59:05.217Z,56.31
